createdAt,value
2023-05-23T00:01:07.458Z,34.59
2023-05-23T00:03:35.240Z,34.75
2023-05-23T00:06:02.949Z,35.07
2023-05-23T00:08:31.408Z,35.33
2023-05-23T00:10:58.976Z,35.45
2023-05-23T00:13:27.781Z,35.55
2023-05-23T00:15:58.455Z,35.61
2023-05-23T00:18:28.737Z,35.84
2023-05-23T00:20:59.407Z,35.81
2023-05-23T00:23:29.834Z,35.96
2023-05-23T00:26:00.364Z,36.17
2023-05-23T00:28:30.954Z,36.40
2023-05-23T00:31:00.533Z,36.55
2023-05-23T00:33:33.472Z,36.47
2023-05-23T00:36:04.489Z,36.84
2023-05-23T00:38:34.924Z,36.73
2023-05-23T00:41:04.642Z,36.88
2023-05-23T00:43:34.661Z,37.04
2023-05-23T00:46:04.682Z,36.77
2023-05-23T00:48:35.220Z,36.60
2023-05-23T00:51:05.466Z,36.72
2023-05-23T00:53:36.525Z,36.62
2023-05-23T00:56:07.511Z,36.55
2023-05-23T00:58:38.531Z,36.52
2023-05-23T01:01:10.515Z,36.25
2023-05-23T01:03:40.774Z,36.10
2023-05-23T01:06:10.835Z,36.23
2023-05-23T01:08:42.336Z,36.03
2023-05-23T01:11:24.534Z,36.13
2023-05-23T01:21:35.945Z,36.33
2023-05-23T01:24:25.116Z,36.50
2023-05-23T01:27:03.526Z,36.43
2023-05-23T01:29:50.175Z,36.43
2023-05-23T01:32:17.507Z,36.44
2023-05-23T01:34:44.940Z,36.51
2023-05-23T01:37:14.790Z,36.76
2023-05-23T01:39:42.217Z,36.69
2023-05-23T01:42:09.748Z,36.88
2023-05-23T01:44:37.217Z,36.50
2023-05-23T01:47:04.883Z,36.43
2023-05-23T01:49:32.700Z,36.07
2023-05-23T01:52:01.352Z,35.84
2023-05-23T01:54:29.796Z,35.89
2023-05-23T01:56:57.511Z,36.12
2023-05-23T01:59:24.880Z,36.23
2023-05-23T02:01:52.958Z,36.13
2023-05-23T02:04:20.708Z,36.18
2023-05-23T02:06:48.109Z,35.87
2023-05-23T02:09:15.764Z,35.91
2023-05-23T02:11:43.165Z,36.11
2023-05-23T02:14:11.323Z,36.51
2023-05-23T02:16:38.847Z,36.70
2023-05-23T02:19:06.480Z,36.58
2023-05-23T02:21:35.538Z,36.68
2023-05-23T02:24:03.963Z,36.37
2023-05-23T02:26:31.396Z,36.11
2023-05-23T02:28:58.746Z,35.79
2023-05-23T02:31:26.913Z,35.47
2023-05-23T02:33:54.466Z,34.96
2023-05-23T02:36:22.767Z,34.68
2023-05-23T02:38:50.147Z,34.55
2023-05-23T02:41:17.920Z,34.05
2023-05-23T02:43:47.298Z,33.77
2023-05-23T02:46:15.959Z,33.29
2023-05-23T02:48:43.385Z,32.98
2023-05-23T02:51:10.863Z,32.59
2023-05-23T02:53:38.299Z,32.03
2023-05-23T02:56:08.127Z,31.58
2023-05-23T02:58:36.054Z,31.01
2023-05-23T03:01:04.122Z,30.20
2023-05-23T03:03:32.832Z,29.65
2023-05-23T03:06:01.085Z,29.16
2023-05-23T03:08:28.555Z,28.76
2023-05-23T03:10:56.025Z,28.33
2023-05-23T03:13:23.404Z,27.96
2023-05-23T03:15:50.906Z,27.66
2023-05-23T03:18:18.485Z,27.19
2023-05-23T03:20:45.929Z,26.58
2023-05-23T03:23:13.407Z,26.19
2023-05-23T03:25:41.059Z,25.46
2023-05-23T03:28:08.667Z,25.05
2023-05-23T03:30:36.076Z,24.66
2023-05-23T03:33:03.792Z,24.09
2023-05-23T03:35:31.266Z,23.52
2023-05-23T03:37:58.671Z,23.26
2023-05-23T03:40:26.130Z,22.97
2023-05-23T03:44:02.660Z,23.81
2023-05-23T03:53:08.702Z,21.70
2023-05-23T03:55:37.123Z,21.35
2023-05-23T03:58:04.742Z,20.84
2023-05-23T04:08:13.839Z,19.27
2023-05-23T04:10:41.515Z,18.53
2023-05-23T04:13:09.890Z,17.95
2023-05-23T04:15:40.010Z,17.59
2023-05-23T04:18:10.660Z,17.41
2023-05-23T04:20:38.617Z,17.31
2023-05-23T04:23:06.100Z,17.07
2023-05-23T04:25:36.488Z,17.01
2023-05-23T04:28:10.766Z,17.04
2023-05-23T04:30:38.384Z,16.71
2023-05-23T04:33:06.482Z,16.81
2023-05-23T04:35:34.635Z,16.52
2023-05-23T04:38:04.150Z,16.61
2023-05-23T04:40:32.139Z,16.47
2023-05-23T04:43:20.803Z,16.05
2023-05-23T04:46:04.192Z,15.98
2023-05-23T04:56:23.203Z,15.10
2023-05-23T04:58:51.230Z,15.00
2023-05-23T05:01:18.853Z,14.86
2023-05-23T05:03:47.496Z,14.70
2023-05-23T05:06:15.112Z,14.59
2023-05-23T05:08:43.648Z,14.43
2023-05-23T05:11:11.808Z,14.44
2023-05-23T05:13:39.423Z,14.41
2023-05-23T05:16:07.816Z,14.18
2023-05-23T05:18:36.532Z,14.12
2023-05-23T05:21:04.009Z,14.13
2023-05-23T05:23:31.923Z,14.04
2023-05-23T05:26:00.794Z,14.00
2023-05-23T05:28:28.669Z,14.29
2023-05-23T05:30:57.055Z,14.53
2023-05-23T05:33:24.921Z,14.59
2023-05-23T05:36:07.386Z,15.19
2023-05-23T05:38:34.803Z,15.31
2023-05-23T05:41:02.662Z,15.00
2023-05-23T05:43:34.817Z,15.12
2023-05-23T05:46:02.569Z,15.14
2023-05-23T05:48:30.298Z,15.29
2023-05-23T05:51:03.315Z,15.45
2023-05-23T06:01:17.757Z,14.94
2023-05-23T06:03:45.900Z,15.03
2023-05-23T06:06:14.451Z,15.09
2023-05-23T06:08:42.491Z,15.14
2023-05-23T06:11:12.751Z,15.33
2023-05-23T06:13:40.150Z,15.26
2023-05-23T06:16:07.808Z,15.08
2023-05-23T06:18:35.317Z,15.07
2023-05-23T06:21:02.864Z,14.54
2023-05-23T06:23:30.458Z,14.53
2023-05-23T06:25:59.432Z,14.60
2023-05-23T06:28:26.834Z,14.73
2023-05-23T06:30:54.208Z,15.15
2023-05-23T06:39:35.471Z,16.54
2023-05-23T06:42:04.552Z,17.05
2023-05-23T06:52:22.310Z,17.13
2023-05-23T06:54:51.348Z,16.68
2023-05-23T06:57:19.132Z,16.50
2023-05-23T06:59:46.790Z,16.42
2023-05-23T07:02:14.322Z,16.53
2023-05-23T07:04:41.959Z,16.29
2023-05-23T07:07:15.174Z,16.40
2023-05-23T07:09:43.922Z,16.62
2023-05-23T07:12:15.657Z,16.66
2023-05-23T07:22:29.428Z,18.55
2023-05-23T07:24:57.518Z,18.88
2023-05-23T07:27:29.059Z,18.97
2023-05-23T07:29:57.741Z,19.18
2023-05-23T07:32:25.750Z,19.44
2023-05-23T07:36:57.195Z,21.28
2023-05-23T07:39:27.225Z,20.02
2023-05-23T07:41:54.433Z,19.87
2023-05-23T07:44:23.912Z,20.09
2023-05-23T07:46:52.004Z,19.84
2023-05-23T07:49:18.908Z,19.21
2023-05-23T07:51:46.280Z,19.32
2023-05-23T07:54:15.696Z,19.02
2023-05-23T07:56:43.608Z,19.00
2023-05-23T07:59:10.485Z,18.83
2023-05-23T08:01:37.190Z,18.50
2023-05-23T08:06:20.130Z,19.62
2023-05-23T08:08:47.567Z,18.36
2023-05-23T08:11:15.153Z,18.25
2023-05-23T08:13:45.917Z,18.94
2023-05-23T08:16:34.786Z,19.23
2023-05-23T08:19:02.582Z,18.37
2023-05-23T08:21:29.243Z,18.16
2023-05-23T08:23:56.000Z,18.12
2023-05-23T08:26:23.136Z,18.07
2023-05-23T08:28:50.767Z,17.65
2023-05-23T08:31:18.259Z,17.24
2023-05-23T08:33:46.967Z,17.04
2023-05-23T08:36:13.827Z,17.07
2023-05-23T08:38:41.504Z,17.07
2023-05-23T08:41:18.226Z,16.87
2023-05-23T08:43:45.026Z,17.13
2023-05-23T08:46:14.299Z,17.45
2023-05-23T08:48:42.060Z,17.75
2023-05-23T08:51:13.369Z,17.87
2023-05-23T08:53:42.069Z,18.09
2023-05-23T08:56:09.045Z,18.28
2023-05-23T08:58:43.702Z,18.33
2023-05-23T09:01:10.759Z,18.50
2023-05-23T09:03:39.386Z,18.82
2023-05-23T09:06:15.539Z,18.83
2023-05-23T09:08:45.460Z,18.95
2023-05-23T09:11:13.436Z,19.22
2023-05-23T09:13:41.646Z,19.27
2023-05-23T09:16:10.439Z,19.41
2023-05-23T09:18:44.516Z,19.21
2023-05-23T09:21:13.639Z,19.18
2023-05-23T09:23:48.807Z,19.43
2023-05-23T09:26:16.114Z,19.38
2023-05-23T09:28:42.969Z,19.47
2023-05-23T09:31:10.397Z,19.22
2023-05-23T09:33:43.652Z,19.18
2023-05-23T09:36:10.523Z,19.05
2023-05-23T09:38:38.922Z,19.03
2023-05-23T09:41:05.981Z,19.06
2023-05-23T09:43:33.733Z,19.14
2023-05-23T09:46:10.513Z,19.42
2023-05-23T09:48:38.110Z,19.36
2023-05-23T09:51:09.297Z,19.44
2023-05-23T09:53:36.763Z,19.49
2023-05-23T09:56:03.817Z,19.41
2023-05-23T09:58:31.169Z,19.36
2023-05-23T10:01:02.617Z,19.23
2023-05-23T10:03:59.656Z,18.97
2023-05-23T10:06:46.066Z,19.05
2023-05-23T10:09:16.609Z,19.23
2023-05-23T10:11:59.318Z,19.43
2023-05-23T10:14:26.162Z,19.40
2023-05-23T10:17:11.092Z,19.61
2023-05-23T10:19:40.464Z,19.57
2023-05-23T10:22:08.982Z,19.72
2023-05-23T10:24:36.113Z,19.80
2023-05-23T10:27:03.009Z,19.95
2023-05-23T10:29:30.293Z,19.83
2023-05-23T10:31:57.084Z,19.51
2023-05-23T10:34:36.654Z,19.90
2023-05-23T10:37:04.709Z,19.80
2023-05-23T10:40:09.357Z,19.83
2023-05-23T10:42:49.248Z,19.73
2023-05-23T10:45:20.740Z,19.89
2023-05-23T10:47:48.300Z,19.73
2023-05-23T10:50:41.266Z,19.88
2023-05-23T10:53:08.512Z,19.66
2023-05-23T10:55:36.117Z,19.69
2023-05-23T10:58:15.236Z,19.39
2023-05-23T11:00:55.532Z,19.51
2023-05-23T11:03:48.765Z,19.56
2023-05-23T11:06:42.317Z,19.52
2023-05-23T11:09:10.415Z,19.59
2023-05-23T11:11:50.067Z,19.55
2023-05-23T11:14:16.629Z,19.48
2023-05-23T11:16:45.996Z,19.24
2023-05-23T11:19:18.916Z,19.21
2023-05-23T11:21:55.692Z,19.11
2023-05-23T11:24:22.669Z,19.25
2023-05-23T11:26:54.580Z,19.31
2023-05-23T11:29:21.293Z,19.08
2023-05-23T11:31:48.123Z,19.14
2023-05-23T11:34:15.095Z,18.95
2023-05-23T11:36:41.800Z,19.28
2023-05-23T11:39:08.530Z,19.22
2023-05-23T11:41:35.744Z,19.15
2023-05-23T11:44:12.622Z,19.10
2023-05-23T11:46:40.247Z,19.25
2023-05-23T11:49:11.191Z,19.22
2023-05-23T11:51:38.137Z,19.29
2023-05-23T11:54:06.248Z,19.35
2023-05-23T11:56:39.007Z,19.45
2023-05-23T11:59:06.118Z,19.33
2023-05-23T12:01:34.173Z,19.30
2023-05-23T12:04:01.287Z,19.12
2023-05-23T12:06:31.468Z,19.37
2023-05-23T12:09:00.937Z,19.42
2023-05-23T12:11:31.369Z,19.17
2023-05-23T12:14:01.252Z,19.30
2023-05-23T12:16:31.567Z,19.28
2023-05-23T12:18:58.586Z,19.14
2023-05-23T12:21:26.184Z,18.97
2023-05-23T12:23:53.002Z,18.79
2023-05-23T12:26:19.779Z,18.90
2023-05-23T12:28:46.648Z,18.99
2023-05-23T12:31:16.660Z,18.99
2023-05-23T12:33:44.744Z,19.06
2023-05-23T12:36:11.789Z,19.35
2023-05-23T12:38:40.478Z,19.49
2023-05-23T12:41:11.202Z,19.65
2023-05-23T12:43:40.085Z,19.89
2023-05-23T12:46:09.718Z,20.05
2023-05-23T12:48:36.676Z,19.82
2023-05-23T12:51:04.400Z,20.23
2023-05-23T12:53:31.199Z,20.27
2023-05-23T12:55:58.057Z,20.47
2023-05-23T12:58:24.589Z,20.57
2023-05-23T13:00:51.794Z,20.46
2023-05-23T13:03:18.471Z,20.78
2023-05-23T13:05:45.252Z,20.68
2023-05-23T13:08:12.520Z,20.89
2023-05-23T13:10:39.728Z,20.78
2023-05-23T13:13:06.941Z,20.77
2023-05-23T13:15:33.626Z,20.90
2023-05-23T13:18:00.421Z,20.98
2023-05-23T13:20:29.933Z,21.13
2023-05-23T13:22:57.180Z,21.21
2023-05-23T13:25:24.970Z,21.06
2023-05-23T13:27:52.625Z,21.11
2023-05-23T13:30:20.298Z,21.10
2023-05-23T13:32:48.504Z,21.34
2023-05-23T13:35:16.301Z,21.15
2023-05-23T13:37:42.973Z,20.98
2023-05-23T13:40:12.642Z,20.91
2023-05-23T13:42:39.801Z,20.75
2023-05-23T13:45:07.509Z,20.80
2023-05-23T13:47:34.868Z,20.71
2023-05-23T13:50:03.576Z,20.78
2023-05-23T13:52:30.511Z,20.73
2023-05-23T13:54:57.296Z,20.60
2023-05-23T13:57:23.947Z,20.91
2023-05-23T13:59:50.669Z,20.78
2023-05-23T14:02:17.425Z,20.49
2023-05-23T14:04:44.116Z,20.63
2023-05-23T14:07:10.735Z,20.61
2023-05-23T14:09:37.324Z,20.81
2023-05-23T14:12:05.051Z,21.07
2023-05-23T14:14:31.963Z,20.87
2023-05-23T14:16:58.759Z,20.90
2023-05-23T14:19:25.580Z,20.92
2023-05-23T14:21:52.216Z,20.80
2023-05-23T14:24:18.772Z,20.86
2023-05-23T14:26:46.446Z,20.88
2023-05-23T14:29:13.177Z,20.77
2023-05-23T14:31:39.775Z,20.89
2023-05-23T14:34:06.620Z,21.03
2023-05-23T14:36:33.444Z,21.14
2023-05-23T14:39:00.924Z,21.13
2023-05-23T14:41:28.515Z,20.89
2023-05-23T14:43:55.213Z,21.16
2023-05-23T14:46:24.304Z,21.01
2023-05-23T14:48:51.100Z,21.08
2023-05-23T14:51:30.327Z,20.85
2023-05-23T14:54:01.861Z,20.95
2023-05-23T14:56:28.861Z,21.00
2023-05-23T14:58:56.855Z,21.12
2023-05-23T15:01:23.576Z,21.01
2023-05-23T15:03:50.739Z,20.97
2023-05-23T15:06:17.545Z,20.99
2023-05-23T15:08:46.960Z,20.98
2023-05-23T15:11:13.783Z,20.76
2023-05-23T15:13:41.331Z,21.00
2023-05-23T15:16:08.518Z,21.15
2023-05-23T15:18:41.426Z,21.02
2023-05-23T15:21:09.112Z,20.94
2023-05-23T15:23:36.268Z,21.03
2023-05-23T15:26:03.152Z,21.22
2023-05-23T15:28:32.097Z,21.15
2023-05-23T15:30:59.095Z,21.20
2023-05-23T15:33:25.746Z,21.12
2023-05-23T15:35:53.260Z,21.09
2023-05-23T15:38:20.435Z,21.09
2023-05-23T15:40:48.221Z,21.22
2023-05-23T15:43:15.198Z,21.23
2023-05-23T15:45:42.124Z,21.41
2023-05-23T15:48:10.691Z,21.50
2023-05-23T15:50:37.658Z,21.36
2023-05-23T15:53:04.243Z,21.48
2023-05-23T15:55:30.964Z,21.57
2023-05-23T15:57:57.746Z,21.65
2023-05-23T16:00:25.090Z,21.87
2023-05-23T16:02:51.694Z,21.80
2023-05-23T16:05:18.304Z,22.08
2023-05-23T16:07:45.540Z,21.96
2023-05-23T16:10:13.943Z,21.95
2023-05-23T16:12:41.316Z,22.11
2023-05-23T16:15:09.028Z,21.96
2023-05-23T16:17:35.628Z,22.05
2023-05-23T16:20:03.612Z,21.93
2023-05-23T16:22:31.051Z,22.10
2023-05-23T16:24:57.612Z,21.93
2023-05-23T16:27:24.299Z,21.99
2023-05-23T16:29:51.008Z,21.90
2023-05-23T16:32:17.840Z,21.76
2023-05-23T16:34:48.758Z,21.96
2023-05-23T16:37:19.699Z,21.95
2023-05-23T16:39:47.270Z,21.89
2023-05-23T16:42:14.025Z,21.93
2023-05-23T16:44:41.079Z,21.94
2023-05-23T16:47:08.074Z,22.03
2023-05-23T16:49:34.844Z,22.18
2023-05-23T16:52:01.766Z,22.26
2023-05-23T16:54:28.810Z,22.27
2023-05-23T16:56:57.036Z,22.34
2023-05-23T16:59:23.511Z,22.20
2023-05-23T17:01:50.374Z,22.32
2023-05-23T17:04:19.589Z,22.28
2023-05-23T17:06:47.310Z,22.16
2023-05-23T17:09:14.094Z,22.26
2023-05-23T17:11:40.908Z,22.30
2023-05-23T17:14:07.474Z,22.23
2023-05-23T17:16:34.324Z,22.19
2023-05-23T17:19:01.261Z,22.08
2023-05-23T17:21:28.077Z,21.99
2023-05-23T17:23:54.880Z,22.07
2023-05-23T17:26:21.362Z,22.06
2023-05-23T17:28:48.212Z,22.01
2023-05-23T17:31:14.986Z,21.79
2023-05-23T17:33:44.027Z,22.13
2023-05-23T17:36:10.696Z,22.16
2023-05-23T17:38:38.295Z,22.16
2023-05-23T17:41:05.114Z,22.49
2023-05-23T17:43:32.258Z,22.61
2023-05-23T17:45:59.095Z,23.13
2023-05-23T17:48:38.405Z,23.41
2023-05-23T17:51:12.626Z,23.56
2023-05-23T17:53:40.720Z,23.68
2023-05-23T17:56:10.858Z,23.24
2023-05-23T17:58:38.213Z,23.12
2023-05-23T18:01:06.331Z,23.16
2023-05-23T18:03:33.301Z,23.82
2023-05-23T18:06:00.251Z,23.95
2023-05-23T18:08:27.406Z,23.91
2023-05-23T18:10:54.657Z,24.23
2023-05-23T18:13:21.517Z,24.65
2023-05-23T18:15:49.364Z,24.71
2023-05-23T18:18:17.327Z,24.51
2023-05-23T18:20:44.261Z,24.62
2023-05-23T18:23:11.383Z,24.60
2023-05-23T18:25:38.173Z,24.43
2023-05-23T18:28:05.122Z,24.31
2023-05-23T18:30:32.928Z,24.34
2023-05-23T18:32:59.815Z,24.25
2023-05-23T18:35:26.911Z,24.48
2023-05-23T18:37:54.019Z,24.58
2023-05-23T18:40:23.215Z,24.70
2023-05-23T18:42:50.505Z,25.31
2023-05-23T18:45:17.252Z,25.86
2023-05-23T18:47:44.186Z,26.45
2023-05-23T18:50:12.242Z,26.88
2023-05-23T18:52:39.275Z,27.37
2023-05-23T18:55:07.119Z,27.78
2023-05-23T18:57:33.831Z,27.72
2023-05-23T19:00:02.127Z,27.86
2023-05-23T19:02:29.573Z,27.88
2023-05-23T19:04:56.801Z,27.85
2023-05-23T19:07:24.039Z,27.96
2023-05-23T19:09:51.049Z,27.97
2023-05-23T19:12:18.519Z,27.64
2023-05-23T19:14:45.077Z,27.98
2023-05-23T19:17:11.892Z,28.57
2023-05-23T19:19:38.564Z,28.72
2023-05-23T19:22:06.795Z,28.45
2023-05-23T19:24:33.923Z,28.29
2023-05-23T19:27:01.690Z,28.47
2023-05-23T19:29:28.760Z,28.62
2023-05-23T19:31:56.883Z,28.90
2023-05-23T19:34:23.550Z,28.45
2023-05-23T19:36:51.111Z,28.34
2023-05-23T19:39:18.538Z,29.21
2023-05-23T19:41:45.437Z,29.26
2023-05-23T19:44:12.642Z,29.23
2023-05-23T19:46:39.344Z,29.28
2023-05-23T19:49:06.063Z,28.92
2023-05-23T19:51:32.797Z,29.05
2023-05-23T19:53:59.449Z,29.33
2023-05-23T19:56:26.872Z,29.70
2023-05-23T19:58:53.772Z,29.64
2023-05-23T20:01:21.349Z,29.80
2023-05-23T20:03:48.605Z,29.91
2023-05-23T20:06:16.775Z,29.81
2023-05-23T20:08:43.807Z,29.69
2023-05-23T20:11:11.883Z,29.76
2023-05-23T20:13:40.348Z,29.77
2023-05-23T20:16:09.721Z,29.67
2023-05-23T20:18:36.776Z,29.81
2023-05-23T20:23:45.175Z,31.95
2023-05-23T20:34:06.702Z,30.56
2023-05-23T20:36:33.455Z,30.63
2023-05-23T20:39:00.128Z,30.86
2023-05-23T20:41:29.167Z,31.15
2023-05-23T20:43:55.866Z,31.46
2023-05-23T20:46:22.595Z,31.62
2023-05-23T20:48:49.189Z,31.74
2023-05-23T20:51:16.389Z,31.84
2023-05-23T20:53:43.019Z,32.21
2023-05-23T20:56:09.883Z,32.54
2023-05-23T20:58:37.457Z,32.63
2023-05-23T21:01:04.544Z,32.64
2023-05-23T21:03:32.590Z,32.69
2023-05-23T21:05:59.464Z,32.81
2023-05-23T21:08:26.104Z,32.79
2023-05-23T21:10:54.646Z,32.85
2023-05-23T21:13:21.630Z,32.75
2023-05-23T21:15:48.271Z,32.69
2023-05-23T21:18:15.417Z,33.33
2023-05-23T21:20:42.582Z,33.86
2023-05-23T21:23:09.939Z,34.27
2023-05-23T21:25:36.593Z,34.14
2023-05-23T21:28:03.432Z,34.08
2023-05-23T21:30:30.683Z,34.06
2023-05-23T21:32:57.603Z,34.11
2023-05-23T21:35:24.537Z,33.82
2023-05-23T21:37:51.295Z,33.52
2023-05-23T21:40:17.861Z,33.51
2023-05-23T21:42:44.466Z,33.69
2023-05-23T21:45:11.160Z,33.55
2023-05-23T21:47:38.185Z,33.56
2023-05-23T21:50:05.780Z,33.70
2023-05-23T21:52:32.788Z,33.93
2023-05-23T21:54:59.415Z,33.84
2023-05-23T21:57:26.206Z,33.30
2023-05-23T21:59:52.735Z,33.18
2023-05-23T22:02:19.322Z,33.16
2023-05-23T22:04:46.305Z,33.09
2023-05-23T22:07:12.954Z,33.04
2023-05-23T22:09:39.575Z,33.09
2023-05-23T22:12:06.899Z,33.46
2023-05-23T22:14:33.698Z,33.43
2023-05-23T22:17:01.608Z,33.59
2023-05-23T22:19:29.746Z,33.74
2023-05-23T22:21:56.414Z,33.77
2023-05-23T22:24:23.365Z,33.61
2023-05-23T22:26:50.354Z,33.65
2023-05-23T22:29:16.883Z,33.66
2023-05-23T22:31:43.833Z,33.79
2023-05-23T22:34:10.918Z,33.87
2023-05-23T22:36:38.392Z,34.02
2023-05-23T22:39:05.599Z,34.28
2023-05-23T22:41:32.751Z,34.43
2023-05-23T22:43:59.322Z,34.62
2023-05-23T22:46:27.002Z,34.50
2023-05-23T22:48:54.700Z,34.58
2023-05-23T22:51:21.622Z,34.37
2023-05-23T22:53:48.464Z,34.66
2023-05-23T22:56:15.549Z,34.92
2023-05-23T22:58:42.543Z,34.75
2023-05-23T23:01:09.387Z,34.68
2023-05-23T23:03:36.106Z,34.68
2023-05-23T23:06:05.467Z,35.01
2023-05-23T23:08:32.199Z,34.81
2023-05-23T23:10:59.187Z,34.87
2023-05-23T23:13:26.297Z,35.13
2023-05-23T23:15:53.908Z,35.70
2023-05-23T23:18:20.542Z,35.57
2023-05-23T23:20:47.908Z,35.71
2023-05-23T23:23:14.890Z,35.60
2023-05-23T23:25:42.062Z,35.47
2023-05-23T23:28:08.858Z,35.06
2023-05-23T23:30:35.509Z,35.18
2023-05-23T23:33:03.009Z,35.47
2023-05-23T23:35:29.886Z,35.15
2023-05-23T23:37:56.418Z,35.15
2023-05-23T23:40:23.279Z,35.18
2023-05-23T23:42:50.058Z,35.27
2023-05-23T23:45:16.551Z,35.11
2023-05-23T23:47:43.241Z,35.15
2023-05-23T23:50:12.981Z,35.04
2023-05-23T23:52:40.124Z,35.34
2023-05-23T23:55:07.704Z,35.32
2023-05-23T23:57:34.710Z,35.47
